createdAt,value
2019-04-16T00:00:56.272Z,3.37
2019-04-16T00:03:26.042Z,3.37
2019-04-16T00:05:58.909Z,3.37
2019-04-16T00:08:54.164Z,3.34
2019-04-16T00:11:33.286Z,3.32
2019-04-16T00:14:04.558Z,3.38
2019-04-16T00:16:34.345Z,3.38
2019-04-16T00:19:05.702Z,3.40
2019-04-16T00:21:41.247Z,3.31
2019-04-16T00:24:18.267Z,3.22
2019-04-16T00:26:45.747Z,3.19
2019-04-16T00:29:15.163Z,3.14
2019-04-16T00:31:46.288Z,3.09
2019-04-16T00:34:15.754Z,3.06
2019-04-16T00:36:48.405Z,3.03
2019-04-16T00:39:16.449Z,3.03
2019-04-16T00:41:45.911Z,3.05
2019-04-16T00:44:15.381Z,3.10
2019-04-16T00:46:45.016Z,3.07
2019-04-16T00:49:14.483Z,2.94
2019-04-16T00:51:43.932Z,2.87
2019-04-16T00:54:13.696Z,2.80
2019-04-16T00:56:43.611Z,2.68
2019-04-16T00:59:14.309Z,2.61
2019-04-16T01:01:43.793Z,2.66
2019-04-16T01:04:13.513Z,2.60
2019-04-16T01:06:43.533Z,2.58
2019-04-16T01:09:13.192Z,2.47
2019-04-16T01:11:42.729Z,2.36
2019-04-16T01:14:12.769Z,2.33
2019-04-16T01:16:42.491Z,2.27
2019-04-16T01:19:12.681Z,2.26
2019-04-16T01:21:44.786Z,2.15
2019-04-16T01:24:14.341Z,2.12
2019-04-16T01:26:44.090Z,2.06
2019-04-16T01:29:15.386Z,1.98
2019-04-16T01:32:02.690Z,1.91
2019-04-16T01:34:36.669Z,1.87
2019-04-16T01:37:20.162Z,1.81
2019-04-16T01:39:51.443Z,1.77
2019-04-16T01:42:23.682Z,1.73
2019-04-16T01:44:52.534Z,1.68
2019-04-16T01:47:21.996Z,1.65
2019-04-16T01:49:51.470Z,1.62
2019-04-16T01:52:20.944Z,1.65
2019-04-16T01:54:51.439Z,1.58
2019-04-16T01:57:21.619Z,1.55
2019-04-16T01:59:51.087Z,1.46
2019-04-16T02:02:20.600Z,1.42
2019-04-16T02:04:52.002Z,1.37
2019-04-16T02:07:21.595Z,1.31
2019-04-16T02:09:51.082Z,1.31
2019-04-16T02:12:20.524Z,1.27
2019-04-16T02:14:51.142Z,1.15
2019-04-16T02:17:20.715Z,1.03
2019-04-16T02:19:50.187Z,0.98
2019-04-16T02:22:19.670Z,0.95
2019-04-16T02:24:49.515Z,0.97
2019-04-16T02:27:19.005Z,0.94
2019-04-16T02:29:48.467Z,0.93
2019-04-16T02:32:17.946Z,0.87
2019-04-16T02:34:47.439Z,0.86
2019-04-16T02:37:16.885Z,0.83
2019-04-16T02:39:48.756Z,0.81
2019-04-16T02:42:18.049Z,0.80
2019-04-16T02:44:49.895Z,0.80
2019-04-16T02:47:18.973Z,0.74
2019-04-16T02:49:49.308Z,0.69
2019-04-16T02:52:20.396Z,0.73
2019-04-16T02:54:51.769Z,0.72
2019-04-16T02:57:37.817Z,0.69
2019-04-16T03:00:09.123Z,0.62
2019-04-16T03:02:40.705Z,0.55
2019-04-16T03:05:11.944Z,0.58
2019-04-16T03:07:41.356Z,0.53
2019-04-16T03:10:13.312Z,0.49
2019-04-16T03:12:42.046Z,0.45
2019-04-16T03:15:11.744Z,0.44
2019-04-16T03:17:43.673Z,0.38
2019-04-16T03:20:15.011Z,0.38
2019-04-16T03:22:44.442Z,0.35
2019-04-16T03:25:14.655Z,0.32
2019-04-16T03:27:44.231Z,0.34
2019-04-16T03:30:13.878Z,0.35
2019-04-16T03:32:51.022Z,0.30
2019-04-16T03:35:25.007Z,0.25
2019-04-16T03:37:51.745Z,0.22
2019-04-16T03:40:24.717Z,0.21
2019-04-16T03:42:52.386Z,0.17
2019-04-16T03:45:21.846Z,0.13
2019-04-16T03:47:52.351Z,0.08
2019-04-16T03:50:21.980Z,0.03
2019-04-16T03:52:51.503Z,-0.02
2019-04-16T03:55:25.026Z,-0.04
2019-04-16T03:57:52.169Z,-0.07
2019-04-16T04:00:21.939Z,-0.06
2019-04-16T04:02:55.169Z,-0.09
2019-04-16T04:05:22.938Z,-0.10
2019-04-16T04:07:55.213Z,-0.13
2019-04-16T04:10:30.700Z,-0.14
2019-04-16T04:12:55.326Z,-0.14
2019-04-16T04:15:26.291Z,-0.15
2019-04-16T04:17:56.131Z,-0.18
2019-04-16T04:20:25.614Z,-0.19
2019-04-16T04:22:57.040Z,-0.22
2019-04-16T04:25:26.565Z,-0.22
2019-04-16T04:27:56.644Z,-0.18
2019-04-16T04:30:28.710Z,-0.15
2019-04-16T04:32:57.767Z,-0.06
2019-04-16T04:35:27.224Z,0.02
2019-04-16T04:37:56.695Z,0.03
2019-04-16T04:40:26.431Z,0.09
2019-04-16T04:42:57.676Z,0.13
2019-04-16T04:45:27.072Z,0.29
2019-04-16T04:47:56.555Z,0.43
2019-04-16T04:50:26.082Z,0.50
2019-04-16T04:52:55.565Z,0.51
2019-04-16T04:55:26.870Z,0.54
2019-04-16T04:57:56.214Z,0.60
2019-04-16T05:00:25.681Z,0.74
2019-04-16T05:02:55.183Z,0.88
2019-04-16T05:05:29.093Z,1.12
2019-04-16T05:07:59.967Z,1.17
2019-04-16T05:10:29.702Z,1.24
2019-04-16T05:12:59.178Z,1.36
2019-04-16T05:15:29.407Z,1.56
2019-04-16T05:17:59.491Z,1.80
2019-04-16T05:20:29.912Z,2.15
2019-04-16T05:22:59.736Z,2.67
2019-04-16T05:25:33.267Z,3.09
2019-04-16T05:28:00.689Z,3.31
2019-04-16T05:30:30.151Z,3.63
2019-04-16T05:33:04.870Z,3.81
2019-04-16T05:35:31.140Z,4.05
2019-04-16T05:38:00.653Z,4.34
2019-04-16T05:40:34.252Z,4.13
2019-04-16T05:43:01.270Z,4.17
2019-04-16T05:45:30.729Z,4.40
2019-04-16T05:48:00.239Z,4.33
2019-04-16T05:50:30.062Z,4.67
2019-04-16T05:52:59.552Z,4.91
2019-04-16T05:55:39.828Z,5.68
2019-04-16T05:58:09.282Z,5.99
2019-04-16T06:00:43.079Z,5.75
2019-04-16T06:03:12.579Z,6.09
2019-04-16T06:05:42.040Z,5.94
2019-04-16T06:08:11.916Z,6.75
2019-04-16T06:10:41.375Z,7.83
2019-04-16T06:13:15.527Z,7.66
2019-04-16T06:15:52.973Z,7.69
2019-04-16T06:18:38.053Z,8.65
2019-04-16T06:21:07.584Z,9.40
2019-04-16T06:23:48.381Z,11.05
2019-04-16T06:26:28.562Z,11.99
2019-04-16T06:29:00.151Z,11.59
2019-04-16T06:31:31.546Z,11.69
2019-04-16T06:34:02.666Z,12.31
2019-04-16T06:36:45.484Z,12.58
2019-04-16T06:39:19.840Z,13.43
2019-04-16T06:41:52.648Z,14.45
2019-04-16T06:44:23.956Z,15.05
2019-04-16T06:47:11.183Z,14.56
2019-04-16T06:49:51.180Z,15.32
2019-04-16T06:52:21.807Z,15.87
2019-04-16T06:55:00.464Z,16.30
2019-04-16T06:57:33.869Z,15.34
2019-04-16T07:00:10.718Z,16.93
2019-04-16T07:03:01.343Z,17.58
2019-04-16T07:05:22.747Z,15.38
2019-04-16T07:08:11.920Z,16.70
2019-04-16T07:10:45.718Z,17.22
2019-04-16T07:13:15.281Z,15.57
2019-04-16T07:15:44.742Z,14.83
2019-04-16T07:18:14.561Z,13.91
2019-04-16T07:20:45.654Z,14.99
2019-04-16T07:23:15.382Z,15.56
2019-04-16T07:25:45.353Z,16.59
2019-04-16T07:28:16.943Z,17.25
2019-04-16T07:31:04.466Z,18.15
2019-04-16T07:33:52.008Z,17.65
2019-04-16T07:36:38.340Z,16.00
2019-04-16T07:39:28.779Z,17.16
2019-04-16T07:42:11.789Z,16.17
2019-04-16T07:44:46.043Z,18.21
2019-04-16T07:47:19.821Z,18.98
2019-04-16T07:50:01.961Z,20.11
2019-04-16T07:52:35.930Z,19.81
2019-04-16T07:55:26.573Z,17.27
2019-04-16T07:57:55.804Z,16.93
2019-04-16T08:00:25.523Z,17.77
2019-04-16T08:02:54.988Z,16.15
2019-04-16T08:05:27.609Z,15.92
2019-04-16T08:07:55.733Z,16.85
2019-04-16T08:10:25.200Z,18.71
2019-04-16T08:12:57.235Z,19.07
2019-04-16T08:15:27.960Z,18.85
2019-04-16T08:17:57.716Z,17.85
2019-04-16T08:20:27.269Z,18.57
2019-04-16T08:22:58.387Z,18.69
2019-04-16T08:25:33.639Z,17.98
2019-04-16T08:28:01.031Z,18.07
2019-04-16T08:30:34.559Z,18.96
2019-04-16T08:33:01.658Z,19.19
2019-04-16T08:35:33.573Z,18.89
2019-04-16T08:38:03.623Z,19.00
2019-04-16T08:40:33.090Z,18.42
2019-04-16T08:43:02.659Z,18.43
2019-04-16T08:45:32.106Z,18.65
2019-04-16T08:48:02.170Z,19.35
2019-04-16T08:50:31.658Z,19.73
2019-04-16T08:53:01.137Z,19.17
2019-04-16T08:55:30.615Z,17.65
2019-04-16T08:58:00.265Z,18.01
2019-04-16T09:00:30.507Z,17.61
2019-04-16T09:03:00.018Z,17.74
2019-04-16T09:05:29.477Z,18.62
2019-04-16T09:08:11.912Z,20.12
2019-04-16T09:10:31.760Z,19.58
2019-04-16T09:13:05.680Z,20.51
2019-04-16T09:15:37.023Z,19.33
2019-04-16T09:18:26.481Z,17.39
2019-04-16T09:20:55.935Z,19.33
2019-04-16T09:23:26.682Z,20.27
2019-04-16T09:26:18.620Z,20.83
2019-04-16T09:29:03.799Z,20.51
2019-04-16T09:31:38.598Z,18.45
2019-04-16T09:34:10.915Z,18.16
2019-04-16T09:36:50.750Z,19.57
2019-04-16T09:39:27.387Z,19.58
2019-04-16T09:41:56.857Z,20.39
2019-04-16T09:44:29.722Z,19.34
2019-04-16T09:46:59.872Z,19.97
2019-04-16T09:49:30.631Z,20.59
2019-04-16T09:52:00.121Z,19.50
2019-04-16T09:54:29.602Z,18.91
2019-04-16T09:56:59.729Z,19.05
2019-04-16T09:59:31.580Z,19.26
2019-04-16T10:02:02.982Z,19.17
2019-04-16T10:04:32.888Z,19.43
2019-04-16T10:07:02.354Z,20.02
2019-04-16T10:09:31.838Z,21.73
2019-04-16T10:12:01.570Z,22.94
2019-04-16T10:14:31.121Z,21.71
2019-04-16T10:17:00.580Z,20.14
2019-04-16T10:19:30.286Z,21.42
2019-04-16T10:21:59.970Z,22.57
2019-04-16T10:24:47.570Z,21.39
2019-04-16T10:27:18.896Z,20.70
2019-04-16T10:29:48.624Z,21.11
2019-04-16T10:32:18.781Z,20.85
2019-04-16T10:34:48.357Z,19.04
2019-04-16T10:37:17.821Z,20.15
2019-04-16T10:39:48.945Z,21.35
2019-04-16T10:42:20.073Z,20.90
2019-04-16T10:45:03.507Z,21.21
2019-04-16T10:47:46.563Z,21.50
2019-04-16T10:50:34.222Z,22.07
2019-04-16T10:53:05.322Z,21.90
2019-04-16T10:55:36.497Z,23.16
2019-04-16T10:58:23.767Z,24.28
2019-04-16T11:01:01.713Z,23.80
2019-04-16T11:03:49.427Z,22.65
2019-04-16T11:06:23.269Z,22.24
2019-04-16T11:08:52.851Z,21.30
2019-04-16T11:11:22.317Z,22.60
2019-04-16T11:14:00.160Z,22.31
2019-04-16T11:16:24.166Z,23.86
2019-04-16T11:18:55.093Z,24.22
2019-04-16T11:21:24.875Z,24.86
2019-04-16T11:23:54.648Z,25.53
2019-04-16T11:26:24.449Z,23.82
2019-04-16T11:28:53.944Z,23.56
2019-04-16T11:31:25.048Z,23.55
2019-04-16T11:33:54.580Z,22.97
2019-04-16T11:36:24.077Z,22.32
2019-04-16T11:38:53.545Z,21.93
2019-04-16T11:41:23.377Z,23.02
2019-04-16T11:43:52.846Z,21.96
2019-04-16T11:46:22.277Z,23.64
2019-04-16T11:48:51.788Z,24.50
2019-04-16T11:51:21.280Z,22.17
2019-04-16T11:53:50.772Z,23.29
2019-04-16T11:56:22.466Z,22.32
2019-04-16T11:58:51.492Z,21.67
2019-04-16T12:01:28.008Z,22.60
2019-04-16T12:04:15.634Z,23.13
2019-04-16T12:07:05.583Z,22.90
2019-04-16T12:09:35.902Z,22.02
2019-04-16T12:12:06.996Z,23.12
2019-04-16T12:14:47.348Z,21.93
2019-04-16T12:17:21.663Z,22.29
2019-04-16T12:20:09.025Z,23.05
2019-04-16T12:22:45.907Z,24.20
2019-04-16T12:25:23.064Z,22.51
2019-04-16T12:27:54.299Z,23.25
2019-04-16T12:30:41.377Z,23.41
2019-04-16T12:33:18.654Z,24.82
2019-04-16T12:35:55.632Z,23.46
2019-04-16T12:38:29.639Z,22.24
2019-04-16T12:41:01.065Z,22.54
2019-04-16T12:43:32.199Z,20.55
2019-04-16T12:46:03.242Z,21.37
2019-04-16T12:48:36.829Z,22.85
2019-04-16T12:51:16.552Z,22.47
2019-04-16T12:53:52.912Z,23.77
2019-04-16T12:56:26.394Z,24.78
2019-04-16T12:59:12.935Z,23.97
2019-04-16T13:01:44.102Z,23.21
2019-04-16T13:04:31.025Z,22.71
2019-04-16T13:07:04.827Z,22.60
2019-04-16T13:09:35.959Z,22.04
2019-04-16T13:12:23.328Z,22.00
2019-04-16T13:15:09.840Z,22.47
2019-04-16T13:17:55.951Z,22.10
2019-04-16T13:20:43.497Z,23.69
2019-04-16T13:23:31.542Z,23.86
2019-04-16T13:26:13.298Z,23.68
2019-04-16T13:28:43.272Z,24.24
2019-04-16T13:31:13.524Z,25.11
2019-04-16T13:33:43.561Z,25.14
2019-04-16T13:36:14.215Z,22.92
2019-04-16T13:38:48.600Z,22.39
2019-04-16T13:41:18.071Z,21.13
2019-04-16T13:44:09.010Z,20.31
2019-04-16T13:46:37.248Z,19.95
2019-04-16T13:49:17.088Z,20.68
2019-04-16T13:51:47.771Z,20.71
2019-04-16T13:54:22.781Z,19.57
2019-04-16T13:56:53.915Z,19.09
2019-04-16T13:59:41.586Z,20.22
2019-04-16T14:02:17.436Z,21.03
2019-04-16T14:04:43.888Z,21.82
2019-04-16T14:07:13.643Z,22.06
2019-04-16T14:09:44.399Z,22.38
2019-04-16T14:12:13.993Z,22.50
2019-04-16T14:14:43.459Z,21.28
2019-04-16T14:17:17.606Z,21.98
2019-04-16T14:19:47.121Z,21.97
2019-04-16T14:22:21.641Z,21.07
2019-04-16T14:24:47.752Z,20.37
2019-04-16T14:27:17.236Z,20.65
2019-04-16T14:29:46.725Z,20.61
2019-04-16T14:32:16.209Z,19.40
2019-04-16T14:34:47.369Z,19.06
2019-04-16T14:37:17.022Z,19.06
2019-04-16T14:39:51.229Z,19.14
2019-04-16T14:42:22.252Z,20.32
2019-04-16T14:44:59.202Z,18.63
2019-04-16T14:47:29.950Z,19.53
2019-04-16T14:49:59.840Z,18.74
2019-04-16T14:52:29.324Z,18.51
2019-04-16T14:55:03.122Z,18.63
2019-04-16T14:57:32.661Z,19.11
2019-04-16T15:00:19.972Z,20.27
2019-04-16T15:02:51.098Z,19.48
2019-04-16T15:05:22.211Z,19.87
2019-04-16T15:07:59.917Z,19.43
2019-04-16T15:10:31.343Z,18.82
2019-04-16T15:13:02.791Z,19.68
2019-04-16T15:15:34.184Z,19.01
2019-04-16T15:18:14.237Z,19.57
2019-04-16T15:21:03.659Z,19.23
2019-04-16T15:23:43.526Z,18.77
2019-04-16T15:26:23.381Z,19.37
2019-04-16T15:28:57.145Z,19.42
2019-04-16T15:31:34.267Z,19.61
2019-04-16T15:34:14.148Z,19.57
2019-04-16T15:36:50.573Z,19.46
2019-04-16T15:39:21.089Z,19.30
2019-04-16T15:42:08.639Z,19.06
2019-04-16T15:44:42.638Z,19.23
2019-04-16T15:47:31.860Z,17.68
2019-04-16T15:50:02.057Z,18.34
2019-04-16T15:52:48.227Z,18.66
2019-04-16T15:55:37.340Z,18.72
2019-04-16T15:58:11.133Z,18.97
2019-04-16T16:00:58.661Z,18.98
2019-04-16T16:03:44.916Z,18.61
2019-04-16T16:06:22.421Z,18.54
2019-04-16T16:08:56.867Z,17.98
2019-04-16T16:11:27.965Z,18.26
2019-04-16T16:14:00.387Z,18.09
2019-04-16T16:16:41.135Z,17.58
2019-04-16T16:18:59.795Z,17.40
2019-04-16T16:21:29.302Z,17.06
2019-04-16T16:23:59.034Z,17.24
2019-04-16T16:26:28.505Z,17.63
2019-04-16T16:28:57.970Z,17.71
2019-04-16T16:31:31.346Z,17.24
2019-04-16T16:33:58.628Z,16.98
2019-04-16T16:36:28.114Z,16.26
2019-04-16T16:38:57.559Z,16.49
2019-04-16T16:41:27.031Z,16.55
2019-04-16T16:43:56.533Z,16.43
2019-04-16T16:46:56.028Z,16.71
2019-04-16T16:49:15.671Z,16.66
2019-04-16T16:51:57.457Z,16.16
2019-04-16T16:54:28.019Z,16.21
2019-04-16T16:57:17.202Z,16.21
2019-04-16T17:00:00.355Z,15.96
2019-04-16T17:02:36.004Z,15.86
2019-04-16T17:05:08.553Z,15.88
2019-04-16T17:07:38.091Z,15.61
2019-04-16T17:10:09.596Z,15.60
2019-04-16T17:12:39.047Z,15.37
2019-04-16T17:15:09.435Z,15.35
2019-04-16T17:17:39.210Z,15.15
2019-04-16T17:20:08.770Z,14.97
2019-04-16T17:22:40.679Z,15.03
2019-04-16T17:25:11.957Z,15.03
2019-04-16T17:27:51.156Z,14.87
2019-04-16T17:30:12.143Z,14.59
2019-04-16T17:32:41.597Z,14.26
2019-04-16T17:35:15.564Z,14.08
2019-04-16T17:37:42.246Z,13.95
2019-04-16T17:40:30.243Z,13.84
2019-04-16T17:43:01.348Z,13.67
2019-04-16T17:45:32.814Z,13.50
2019-04-16T17:48:09.766Z,13.39
2019-04-16T17:50:41.067Z,13.18
2019-04-16T17:53:28.748Z,13.18
2019-04-16T17:56:16.478Z,13.10
2019-04-16T17:58:56.509Z,12.96
2019-04-16T18:01:40.375Z,12.96
2019-04-16T18:04:13.132Z,12.92
2019-04-16T18:06:47.163Z,12.73
2019-04-16T18:09:18.257Z,12.65
2019-04-16T18:12:05.353Z,12.52
2019-04-16T18:14:52.776Z,12.50
2019-04-16T18:17:46.277Z,12.56
2019-04-16T18:20:08.490Z,12.34
2019-04-16T18:22:45.798Z,12.24
2019-04-16T18:25:21.371Z,12.04
2019-04-16T18:27:52.610Z,11.97
2019-04-16T18:30:41.844Z,11.95
2019-04-16T18:33:14.774Z,11.88
2019-04-16T18:35:45.842Z,12.00
2019-04-16T18:38:31.953Z,11.96
2019-04-16T18:41:11.872Z,11.80
2019-04-16T18:43:48.665Z,11.68
2019-04-16T18:46:19.792Z,11.54
2019-04-16T18:48:54.296Z,11.46
2019-04-16T18:51:24.038Z,11.25
2019-04-16T18:53:53.690Z,11.26
2019-04-16T18:56:23.244Z,11.18
2019-04-16T18:58:53.060Z,11.45
2019-04-16T19:01:29.705Z,11.29
2019-04-16T19:03:58.921Z,11.32
2019-04-16T19:06:28.358Z,11.28
2019-04-16T19:08:57.836Z,11.50
2019-04-16T19:11:27.366Z,11.43
2019-04-16T19:13:57.360Z,11.45
2019-04-16T19:16:26.812Z,11.23
2019-04-16T19:18:56.307Z,11.07
2019-04-16T19:21:25.806Z,10.98
2019-04-16T19:23:55.309Z,10.71
2019-04-16T19:26:24.773Z,10.62
2019-04-16T19:28:54.312Z,10.41
2019-04-16T19:31:23.943Z,10.29
2019-04-16T19:33:53.432Z,10.28
2019-04-16T19:36:27.227Z,10.20
2019-04-16T19:38:54.099Z,10.02
2019-04-16T19:41:24.551Z,9.99
2019-04-16T19:43:54.132Z,10.02
2019-04-16T19:46:23.595Z,9.95
2019-04-16T19:48:53.310Z,9.85
2019-04-16T19:51:22.778Z,9.76
2019-04-16T19:53:52.235Z,9.79
2019-04-16T19:56:21.762Z,9.94
2019-04-16T19:58:51.229Z,9.79
2019-04-16T20:01:20.685Z,9.62
2019-04-16T20:03:50.151Z,9.46
2019-04-16T20:06:22.714Z,9.29
2019-04-16T20:08:50.954Z,9.15
2019-04-16T20:11:21.604Z,9.17
2019-04-16T20:13:51.190Z,9.06
2019-04-16T20:16:20.645Z,8.96
2019-04-16T20:18:51.525Z,8.86
2019-04-16T20:21:21.143Z,8.78
2019-04-16T20:23:50.618Z,8.70
2019-04-16T20:26:20.078Z,8.62
2019-04-16T20:28:49.835Z,8.50
2019-04-16T20:31:19.288Z,8.33
2019-04-16T20:33:48.757Z,8.18
2019-04-16T20:36:22.484Z,8.10
2019-04-16T20:38:49.393Z,8.09
2019-04-16T20:41:19.276Z,8.04
2019-04-16T20:43:48.762Z,7.95
2019-04-16T20:46:18.221Z,7.82
2019-04-16T20:48:47.676Z,7.81
2019-04-16T20:51:17.204Z,7.80
2019-04-16T20:53:46.668Z,7.80
2019-04-16T20:56:20.041Z,7.64
2019-04-16T20:58:47.302Z,7.59
2019-04-16T21:01:32.988Z,7.52
2019-04-16T21:04:05.071Z,7.37
2019-04-16T21:06:29.999Z,7.50
2019-04-16T21:08:59.491Z,7.40
2019-04-16T21:11:29.256Z,7.30
2019-04-16T21:13:59.795Z,7.27
2019-04-16T21:16:33.521Z,7.13
2019-04-16T21:19:00.853Z,7.05
2019-04-16T21:21:30.307Z,7.03
2019-04-16T21:23:59.775Z,7.03
2019-04-16T21:26:29.233Z,6.98
2019-04-16T21:29:06.333Z,6.85
2019-04-16T21:31:42.349Z,6.74
2019-04-16T21:34:24.977Z,6.69
2019-04-16T21:37:11.821Z,6.70
2019-04-16T21:39:51.368Z,6.77
2019-04-16T21:42:20.147Z,6.74
2019-04-16T21:44:49.616Z,6.64
2019-04-16T21:47:23.268Z,6.58
2019-04-16T21:49:50.511Z,6.63
2019-04-16T21:52:23.082Z,6.59
2019-04-16T21:54:51.307Z,6.52
2019-04-16T21:57:20.760Z,6.59
2019-04-16T21:59:56.734Z,6.60
2019-04-16T22:02:23.069Z,6.56
2019-04-16T22:04:52.710Z,6.49
2019-04-16T22:07:24.682Z,6.51
2019-04-16T22:09:53.375Z,6.56
2019-04-16T22:12:22.861Z,6.44
2019-04-16T22:14:54.216Z,6.45
2019-04-16T22:17:23.631Z,6.40
2019-04-16T22:19:54.643Z,6.40
2019-04-16T22:22:27.310Z,6.39
2019-04-16T22:24:56.077Z,6.36
2019-04-16T22:27:25.862Z,6.29
2019-04-16T22:29:55.331Z,6.24
2019-04-16T22:32:26.988Z,6.22
2019-04-16T22:34:56.298Z,6.19
2019-04-16T22:37:25.804Z,6.36
2019-04-16T22:40:00.034Z,6.37
2019-04-16T22:42:31.400Z,6.31
2019-04-16T22:45:08.032Z,6.26
2019-04-16T22:47:39.157Z,6.20
2019-04-16T22:50:16.068Z,6.13
2019-04-16T22:52:41.667Z,6.09
2019-04-16T22:55:11.149Z,6.14
2019-04-16T22:57:40.682Z,6.11
2019-04-16T23:00:13.089Z,6.01
2019-04-16T23:02:42.732Z,5.93
2019-04-16T23:05:13.759Z,5.90
2019-04-16T23:07:43.214Z,5.81
2019-04-16T23:10:12.924Z,5.80
2019-04-16T23:12:42.381Z,5.69
2019-04-16T23:15:13.293Z,5.60
2019-04-16T23:17:45.796Z,5.54
2019-04-16T23:20:28.464Z,5.62
2019-04-16T23:22:46.545Z,5.59
2019-04-16T23:25:16.343Z,5.54
2019-04-16T23:27:45.812Z,5.54
2019-04-16T23:30:15.756Z,5.53
2019-04-16T23:32:46.482Z,5.54
2019-04-16T23:35:15.961Z,5.56
2019-04-16T23:37:45.419Z,5.55
2019-04-16T23:40:14.871Z,5.55
2019-04-16T23:42:47.478Z,5.53
2019-04-16T23:45:37.232Z,5.50
2019-04-16T23:48:08.316Z,5.43
2019-04-16T23:50:45.109Z,5.40
2019-04-16T23:53:15.475Z,5.38
2019-04-16T23:56:03.578Z,5.39
2019-04-16T23:58:37.625Z,5.37
